Pagrindinis puslapis
METAR-TAF:

METAR-TAF

Oro uostai :

Foz do Iguasu, Parana, Brazilija

platuma: 25-31S, ilguma: 054-35W, Aukštis: 180 m

Dabartinis oras

Ataskaita buvo paskelbta 43 minutes, ne 09:00 UTC
Vėjas 10 kt iš Rytų
Temperatūra 13°C
Drėgmė 88%
Slėgis 1020 hPa
Matomumas 10 km arba daugiau
nėra debesų žemiau 1500 m ir nėra kamuolinių lietaus debesų

METAR: SBFI 250900Z 10010KT CAVOK 13/11 Q1020

Laikas: 06:43 (09:43 UTC)

Prognozė

Ataskaita buvo paskelbta 7 valandos ir 43 minutes, ne 02:00 UTC
Prognozė galioja nuo 25 metu 06 UTC su 26 metu 06 UTC
Vėjas 8 kt iš Rytų/Pietryčių
Matomumas 10 km arba daugiau
nėra debesų žemiau 1500 m ir nėra kamuolinių lietaus debesų
Tapsmas
nuo 25 metu 14 UTC su 25 metu 16 UTC
Vėjas 7 kt iš Šiaurės
Tapsmas
nuo 25 metu 19 UTC su 25 metu 21 UTC
Vėjas 5 kt iš Rytų/Pietryčių

TAF: SBFI 250200Z 2506/2606 11008KT CAVOK TN13/2509Z TX28/2518Z BECMG 2514/2516 01007KT BECMG 2519/2521 12005KT RMK PDW

Orai ataskaitas ir orų prognozės (METAR, TAF).

turimą stotys yra geltonos ir raudonos taškus žemėlapyje.

Perkelti pele per norėdami pamatyti stoties vardą.

Tada spustelėkite, norėdami matyti oro stebėjimo ir prognozės.

Norėdami pakeisti žemėlapį: spustelėkite ant žalios mygtukų su juodo kryžiaus žemyn,; žalią mygtuką su brūkšneliu, jei norite nutolinti; arba žalių rodyklių gretimoms žemėlapius.


METAR-TAF: